createdAt,value
2019-03-16T00:01:40.238Z,7.92
2019-03-16T00:06:44.439Z,7.22
2019-03-16T00:11:48.706Z,4.30
2019-03-16T00:16:53.082Z,7.37
2019-03-16T00:21:57.238Z,9.57
2019-03-16T00:27:01.420Z,6.33
2019-03-16T00:32:13.344Z,6.10
2019-03-16T00:37:11.628Z,7.13
2019-03-16T00:42:15.843Z,11.27
2019-03-16T00:47:20.125Z,6.17
2019-03-16T00:52:24.300Z,10.87
2019-03-16T00:57:28.672Z,7.00
2019-03-16T01:02:33.114Z,10.50
2019-03-16T01:07:37.427Z,8.90
2019-03-16T01:12:41.679Z,11.13
2019-03-16T01:17:45.907Z,10.20
2019-03-16T01:22:50.100Z,7.87
2019-03-16T01:27:54.327Z,6.63
2019-03-16T01:32:58.521Z,8.37
2019-03-16T01:38:02.684Z,6.87
2019-03-16T01:43:06.857Z,11.23
2019-03-16T01:48:11.088Z,11.20
2019-03-16T01:53:15.267Z,7.73
2019-03-16T01:58:19.427Z,8.23
2019-03-16T02:03:23.621Z,9.40
2019-03-16T02:08:27.897Z,9.73
2019-03-16T02:13:32.069Z,8.73
2019-03-16T02:18:36.425Z,10.72
2019-03-16T02:23:40.628Z,10.80
2019-03-16T02:28:44.939Z,6.72
2019-03-16T02:33:49.114Z,9.53
2019-03-16T02:38:53.356Z,9.47
2019-03-16T02:43:57.568Z,8.50
2019-03-16T02:49:01.793Z,7.40
2019-03-16T02:54:05.980Z,7.97
2019-03-16T02:59:10.201Z,7.33
2019-03-16T03:04:14.549Z,9.37
2019-03-16T03:09:18.808Z,6.87
2019-03-16T03:14:22.988Z,8.00
2019-03-16T03:19:27.228Z,7.33
2019-03-16T03:24:31.796Z,9.60
2019-03-16T03:29:35.989Z,5.73
2019-03-16T03:34:40.419Z,5.83
2019-03-16T03:39:44.751Z,8.00
2019-03-16T03:44:48.930Z,8.07
2019-03-16T03:49:53.137Z,10.90
2019-03-16T03:54:57.323Z,9.73
2019-03-16T04:00:01.514Z,9.83
2019-03-16T04:05:06.078Z,9.17
2019-03-16T04:10:10.500Z,8.70
2019-03-16T04:15:14.887Z,8.30
2019-03-16T04:20:19.074Z,10.33
2019-03-16T04:25:23.263Z,15.87
2019-03-16T04:30:27.425Z,10.20
2019-03-16T04:35:31.592Z,8.27
2019-03-16T04:40:35.751Z,10.43
2019-03-16T04:45:39.942Z,9.63
2019-03-16T04:50:44.216Z,9.43
2019-03-16T04:55:48.400Z,10.27
2019-03-16T05:00:52.645Z,7.93
2019-03-16T05:05:56.849Z,8.73
2019-03-16T05:11:01.023Z,7.75
2019-03-16T05:16:05.208Z,10.43
2019-03-16T05:21:09.375Z,6.50
2019-03-16T05:26:13.538Z,6.20
2019-03-16T05:31:17.709Z,8.77
2019-03-16T05:36:21.909Z,7.87
2019-03-16T05:41:26.074Z,9.93
2019-03-16T05:46:30.303Z,7.17
2019-03-16T05:51:34.473Z,6.10
2019-03-16T05:56:38.680Z,7.10
2019-03-16T06:01:42.889Z,9.43
2019-03-16T06:06:47.055Z,5.87
2019-03-16T06:11:51.228Z,11.27
2019-03-16T06:16:55.459Z,10.28
2019-03-16T06:21:59.645Z,5.63
2019-03-16T06:27:03.993Z,5.35
2019-03-16T06:32:08.204Z,6.77
2019-03-16T06:37:12.457Z,6.50
2019-03-16T06:42:16.630Z,3.47
2019-03-16T06:47:23.148Z,6.77
2019-03-16T06:52:26.937Z,6.07
2019-03-16T06:57:31.127Z,6.70
2019-03-16T07:02:35.297Z,4.23
2019-03-16T07:07:39.475Z,8.10
2019-03-16T07:12:43.687Z,5.50
2019-03-16T07:17:47.867Z,5.23
2019-03-16T07:22:52.043Z,5.73
2019-03-16T07:27:56.305Z,5.47
2019-03-16T07:33:00.515Z,6.07
2019-03-16T07:38:04.684Z,4.63
2019-03-16T07:43:08.983Z,8.30
2019-03-16T07:48:13.174Z,6.83
2019-03-16T07:53:17.356Z,6.87
2019-03-16T07:58:21.551Z,5.67
2019-03-16T08:03:25.741Z,7.67
2019-03-16T08:08:31.697Z,5.00
2019-03-16T08:13:35.888Z,5.77
2019-03-16T08:18:40.225Z,5.03
2019-03-16T08:23:44.469Z,7.63
2019-03-16T08:28:48.650Z,5.83
2019-03-16T08:33:52.911Z,6.70
2019-03-16T08:38:57.174Z,7.30
2019-03-16T08:44:01.438Z,4.80
2019-03-16T08:49:05.812Z,7.37
2019-03-16T08:54:09.481Z,5.27
2019-03-16T08:59:13.212Z,3.87
2019-03-16T09:04:17.225Z,6.77
2019-03-16T09:09:20.950Z,4.70
2019-03-16T09:14:24.855Z,14.40
2019-03-16T09:19:28.500Z,4.00
2019-03-16T09:24:32.163Z,8.43
2019-03-16T09:29:35.889Z,3.87
2019-03-16T09:34:39.605Z,3.23
2019-03-16T09:39:43.385Z,3.43
2019-03-16T09:44:47.149Z,3.60
2019-03-16T09:49:50.978Z,1.70
2019-03-16T09:54:54.646Z,2.57
2019-03-16T09:59:58.269Z,3.27
2019-03-16T10:05:01.955Z,2.97
2019-03-16T10:10:06.241Z,5.40
2019-03-16T10:15:10.060Z,2.70
2019-03-16T10:20:13.899Z,3.43
2019-03-16T10:25:17.547Z,5.20
2019-03-16T10:30:21.309Z,4.13
2019-03-16T10:35:24.985Z,3.63
2019-03-16T10:40:28.782Z,5.77
2019-03-16T10:45:32.483Z,5.30
2019-03-16T10:50:36.159Z,2.83
2019-03-16T10:55:39.862Z,3.87
2019-03-16T11:00:43.508Z,4.40
2019-03-16T11:05:47.765Z,6.80
2019-03-16T11:10:52.137Z,5.27
2019-03-16T11:15:56.302Z,6.63
2019-03-16T11:21:00.573Z,6.90
2019-03-16T11:26:04.893Z,7.97
2019-03-16T11:31:09.135Z,8.77
2019-03-16T11:36:13.370Z,10.37
2019-03-16T11:41:17.798Z,7.00
2019-03-16T11:46:22.157Z,8.67
2019-03-16T11:51:26.377Z,9.13
2019-03-16T11:56:30.578Z,16.17
2019-03-16T12:01:34.758Z,12.83
2019-03-16T12:06:38.961Z,10.57
2019-03-16T12:11:43.266Z,8.80
2019-03-16T12:16:47.435Z,9.45
2019-03-16T12:21:51.623Z,8.27
2019-03-16T12:26:55.822Z,10.58
2019-03-16T12:32:00.076Z,9.68
2019-03-16T12:37:04.259Z,8.45
2019-03-16T12:42:08.455Z,8.50
2019-03-16T12:47:12.714Z,8.18
2019-03-16T12:52:16.942Z,6.90
2019-03-16T12:57:21.541Z,6.55
2019-03-16T13:02:25.824Z,6.90
2019-03-16T13:07:30.188Z,6.90
2019-03-16T13:12:34.465Z,7.17
2019-03-16T13:17:38.714Z,7.12
2019-03-16T13:22:42.930Z,7.33
2019-03-16T13:27:48.850Z,8.00
2019-03-16T13:32:53.250Z,8.30
2019-03-16T13:37:57.552Z,8.20
2019-03-16T13:43:01.857Z,8.73
2019-03-16T13:48:06.054Z,9.08
2019-03-16T13:53:10.439Z,10.15
2019-03-16T13:58:14.652Z,9.13
2019-03-16T14:03:19.048Z,7.55
2019-03-16T14:08:23.263Z,7.60
2019-03-16T14:13:27.702Z,6.87
2019-03-16T14:18:31.945Z,5.75
2019-03-16T14:23:36.213Z,5.53
2019-03-16T14:28:40.481Z,4.80
2019-03-16T14:33:44.720Z,3.65
2019-03-16T14:38:48.985Z,3.65
2019-03-16T14:43:53.473Z,5.08
2019-03-16T14:48:57.733Z,5.92
2019-03-16T14:54:02.107Z,5.85
2019-03-16T14:59:05.901Z,6.10
2019-03-16T15:04:09.571Z,5.35
2019-03-16T15:09:13.337Z,4.37
2019-03-16T15:14:21.875Z,5.85
2019-03-16T15:19:22.532Z,5.42
2019-03-16T15:24:26.218Z,5.15
2019-03-16T15:29:31.395Z,4.92
2019-03-16T15:34:35.880Z,4.62
2019-03-16T15:39:40.117Z,3.72
2019-03-16T15:44:44.327Z,3.87
2019-03-16T15:49:48.713Z,3.85
2019-03-16T15:54:52.995Z,3.00
2019-03-16T15:59:57.292Z,6.17
2019-03-16T16:05:01.484Z,4.08
2019-03-16T16:10:06.112Z,3.58
2019-03-16T16:15:10.720Z,5.72
2019-03-16T16:20:14.920Z,2.65
2019-03-16T16:25:19.492Z,2.50
2019-03-16T16:30:23.754Z,4.60
2019-03-16T16:35:27.975Z,3.05
2019-03-16T16:40:32.202Z,3.92
2019-03-16T16:45:36.556Z,3.12
2019-03-16T16:50:40.772Z,2.83
2019-03-16T16:55:45.124Z,2.60
2019-03-16T17:00:49.418Z,2.22
2019-03-16T17:05:53.622Z,2.65
2019-03-16T17:10:57.866Z,1.55
2019-03-16T17:16:02.373Z,2.98
2019-03-16T17:21:06.603Z,2.20
2019-03-16T17:26:11.876Z,2.02
2019-03-16T17:31:16.076Z,2.30
2019-03-16T17:36:22.289Z,3.47
2019-03-16T17:41:25.651Z,3.17
2019-03-16T17:46:29.851Z,2.15
2019-03-16T17:51:34.058Z,3.25
2019-03-16T17:56:38.253Z,3.22
2019-03-16T18:01:54.035Z,4.55
2019-03-16T18:06:48.369Z,3.35
2019-03-16T18:11:52.637Z,2.55
2019-03-16T18:16:56.915Z,3.12
2019-03-16T18:22:01.138Z,3.00
2019-03-16T18:27:05.349Z,2.35
2019-03-16T18:32:09.627Z,3.50
2019-03-16T18:37:14.012Z,6.83
2019-03-16T18:42:18.254Z,3.08
2019-03-16T18:47:22.462Z,2.55
2019-03-16T18:52:26.653Z,2.08
2019-03-16T18:57:30.851Z,2.67
2019-03-16T19:02:35.057Z,3.75
2019-03-16T19:07:39.265Z,2.17
2019-03-16T19:12:43.671Z,3.80
2019-03-16T19:17:58.799Z,1.85
2019-03-16T19:22:54.318Z,3.20
2019-03-16T19:27:58.656Z,2.85
2019-03-16T19:33:02.925Z,3.10
2019-03-16T19:38:07.177Z,5.45
2019-03-16T19:43:11.448Z,3.00
2019-03-16T19:48:15.657Z,2.55
2019-03-16T19:53:19.839Z,2.37
2019-03-16T19:58:24.048Z,3.45
2019-03-16T20:03:28.229Z,2.67
2019-03-16T20:08:32.418Z,2.85
2019-03-16T20:13:36.628Z,2.12
2019-03-16T20:18:40.822Z,2.15
2019-03-16T20:23:45.081Z,2.37
2019-03-16T20:28:49.307Z,2.52
2019-03-16T20:33:53.524Z,4.20
2019-03-16T20:38:57.816Z,4.78
2019-03-16T20:44:03.667Z,3.95
2019-03-16T20:49:08.114Z,2.95
2019-03-16T20:54:12.486Z,3.87
2019-03-16T20:59:16.768Z,3.25
2019-03-16T21:04:20.981Z,3.72
2019-03-16T21:09:25.183Z,5.00
2019-03-16T21:14:29.370Z,3.40
2019-03-16T21:19:33.637Z,4.85
2019-03-16T21:24:37.844Z,2.75
2019-03-16T21:29:42.038Z,2.47
2019-03-16T21:34:46.224Z,3.12
2019-03-16T21:39:50.642Z,3.65
2019-03-16T21:44:54.854Z,4.37
2019-03-16T21:49:59.075Z,5.70
2019-03-16T21:55:03.264Z,5.25
2019-03-16T22:00:09.538Z,4.75
2019-03-16T22:05:13.865Z,5.00
2019-03-16T22:10:18.251Z,3.30
2019-03-16T22:15:22.459Z,4.17
2019-03-16T22:20:26.722Z,3.90
2019-03-16T22:25:31.009Z,4.58
2019-03-16T22:30:35.297Z,5.10
2019-03-16T22:35:39.457Z,3.87
2019-03-16T22:40:43.674Z,6.00
2019-03-16T22:45:47.897Z,4.20
2019-03-16T22:50:52.108Z,2.65
2019-03-16T22:55:56.311Z,5.22
2019-03-16T23:01:00.788Z,4.12
2019-03-16T23:06:04.991Z,7.60
2019-03-16T23:11:09.240Z,5.62
2019-03-16T23:16:13.428Z,6.08
2019-03-16T23:21:17.617Z,7.75
2019-03-16T23:26:21.863Z,4.80
2019-03-16T23:31:26.102Z,5.17
2019-03-16T23:36:30.390Z,5.10
2019-03-16T23:41:34.697Z,4.28
2019-03-16T23:46:38.895Z,4.83
2019-03-16T23:51:43.357Z,4.80
2019-03-16T23:56:47.585Z,5.90
